createdAt,value
2016-12-30T00:03:31.979Z,0
2016-12-30T00:13:46.217Z,0
2016-12-30T00:23:59.950Z,0
2016-12-30T00:34:13.922Z,0
2016-12-30T00:44:27.476Z,0
2016-12-30T00:54:41.053Z,0
2016-12-30T01:04:55.577Z,0
2016-12-30T01:15:09.852Z,0
2016-12-30T01:25:24.740Z,0
2016-12-30T01:35:38.551Z,0
2016-12-30T01:45:52.224Z,0
2016-12-30T01:56:06.665Z,0
2016-12-30T02:06:20.901Z,0
2016-12-30T02:16:35.780Z,0
2016-12-30T02:26:48.854Z,0
2016-12-30T02:37:03.732Z,0
2016-12-30T02:47:16.773Z,0
2016-12-30T02:57:31.479Z,0
2016-12-30T03:07:44.754Z,0
2016-12-30T03:17:59.171Z,0
2016-12-30T03:28:12.673Z,0
2016-12-30T03:38:26.112Z,0
2016-12-30T03:48:41.032Z,0
2016-12-30T03:58:55.424Z,0
2016-12-30T04:09:09.548Z,0
2016-12-30T04:19:24.046Z,0
2016-12-30T04:29:38.372Z,0
2016-12-30T04:39:53.293Z,0
2016-12-30T04:50:06.967Z,0
2016-12-30T05:00:20.060Z,0
2016-12-30T05:10:34.647Z,0
2016-12-30T05:20:48.820Z,0
2016-12-30T05:31:02.249Z,0
2016-12-30T05:41:17.155Z,0
2016-12-30T05:51:31.096Z,0
2016-12-30T06:01:44.609Z,0
2016-12-30T06:11:58.787Z,0
2016-12-30T06:22:11.821Z,0
2016-12-30T06:32:24.811Z,0
2016-12-30T06:42:39.197Z,0
2016-12-30T06:52:53.690Z,0
2016-12-30T07:03:07.663Z,4
2016-12-30T07:13:21.627Z,28
2016-12-30T07:23:35.764Z,104
2016-12-30T07:33:49.951Z,292
2016-12-30T07:44:03.194Z,600
2016-12-30T07:54:16.782Z,1008
2016-12-30T08:04:31.461Z,1448
2016-12-30T08:14:45.920Z,1912
2016-12-30T08:24:59.974Z,2408
2016-12-30T08:35:13.454Z,3040
2016-12-30T08:45:27.983Z,3588
2016-12-30T08:55:41.657Z,5856
2016-12-30T09:05:55.786Z,7596
2016-12-30T09:16:10.780Z,5508
2016-12-30T09:26:25.928Z,8392
2016-12-30T09:36:38.910Z,9700
2016-12-30T09:46:53.211Z,12632
2016-12-30T09:57:07.398Z,12916
2016-12-30T10:07:22.029Z,10864
2016-12-30T10:17:37.124Z,10796
2016-12-30T10:27:50.587Z,11316
2016-12-30T10:38:05.812Z,11908
2016-12-30T10:48:20.374Z,12124
2016-12-30T10:58:34.451Z,12268
2016-12-30T11:08:49.339Z,12424
2016-12-30T11:19:03.081Z,13372
2016-12-30T11:29:16.594Z,13780
2016-12-30T11:39:31.213Z,14272
2016-12-30T11:49:44.945Z,14140
2016-12-30T11:59:59.827Z,14272
2016-12-30T12:10:13.113Z,14136
2016-12-30T12:20:27.239Z,13724
2016-12-30T12:30:41.987Z,13204
2016-12-30T12:40:56.077Z,12544
2016-12-30T12:51:10.528Z,12452
2016-12-30T13:01:24.825Z,11884
2016-12-30T13:11:38.797Z,9704
2016-12-30T13:21:53.022Z,7476
2016-12-30T13:32:07.379Z,6184
2016-12-30T13:42:22.091Z,5604
2016-12-30T13:52:35.548Z,4668
2016-12-30T14:02:49.249Z,4480
2016-12-30T14:13:04.131Z,4156
2016-12-30T14:23:17.184Z,3680
2016-12-30T14:33:31.626Z,3268
2016-12-30T14:43:45.917Z,2780
2016-12-30T14:53:59.197Z,2236
2016-12-30T15:04:13.776Z,1664
2016-12-30T15:14:28.462Z,1104
2016-12-30T15:24:43.501Z,616
2016-12-30T15:34:56.980Z,272
2016-12-30T15:45:10.268Z,92
2016-12-30T15:55:23.390Z,20
2016-12-30T16:05:37.525Z,4
2016-12-30T16:15:51.493Z,0
2016-12-30T16:26:04.779Z,0
2016-12-30T16:36:17.847Z,0
2016-12-30T16:46:32.366Z,0
2016-12-30T16:56:46.677Z,0
2016-12-30T17:07:00.875Z,0
2016-12-30T17:17:15.549Z,0
2016-12-30T17:27:29.885Z,0
2016-12-30T17:37:43.692Z,0
2016-12-30T17:47:57.860Z,0
2016-12-30T17:58:11.164Z,0
2016-12-30T18:08:25.327Z,0
2016-12-30T18:18:38.955Z,0
2016-12-30T18:28:52.134Z,0
2016-12-30T18:39:05.366Z,0
2016-12-30T18:49:19.584Z,0
2016-12-30T18:59:34.099Z,0
2016-12-30T19:09:47.343Z,0
2016-12-30T19:20:01.106Z,0
2016-12-30T19:30:14.248Z,0
2016-12-30T19:40:28.089Z,0
2016-12-30T19:50:42.672Z,0
2016-12-30T20:00:57.221Z,0
2016-12-30T20:11:11.332Z,0
2016-12-30T20:21:25.467Z,0
2016-12-30T20:31:40.002Z,0
2016-12-30T20:41:54.198Z,0
2016-12-30T20:52:09.025Z,0
2016-12-30T21:02:22.687Z,0
2016-12-30T21:12:35.767Z,0
2016-12-30T21:22:50.203Z,0
2016-12-30T21:33:04.794Z,0
2016-12-30T21:43:18.181Z,0
2016-12-30T21:53:31.798Z,0
2016-12-30T22:03:45.564Z,0
2016-12-30T22:13:58.521Z,0
2016-12-30T22:24:12.166Z,0
2016-12-30T22:34:26.764Z,0
2016-12-30T22:44:41.460Z,0
2016-12-30T22:54:55.401Z,0
2016-12-30T23:05:09.027Z,0
2016-12-30T23:15:23.759Z,0
2016-12-30T23:25:38.253Z,0
2016-12-30T23:35:52.539Z,0
2016-12-30T23:56:20.096Z,0
